Time;durP1;ratioP1;P1;durP2;ratioP2;P2;SDS_P1;SDS_P2;PMS_P1;PMS_P2;Temp;Humidity;BMP_temperature;BMP_pressure;BME280_temperature;BME280_humidity;BME280_pressure;Samples;Min_cycle;Max_cycle;Signal;HPM_P1;HPM_P2
2023/10/29 00:01:41;;;;;;;5.72;1.08;;;;;;;14.68;100.00;98491.59;5023196;28;20092;-95
2023/10/29 00:04:09;;;;;;;6.03;1.25;;;;;;;14.69;100.00;98506.72;5023159;28;20049;-94
2023/10/29 00:06:35;;;;;;;5.85;0.93;;;;;;;14.96;100.00;98547.34;5022725;28;20045;-95
2023/10/29 00:09:00;;;;;;;6.70;1.08;;;;;;;14.78;100.00;98530.38;5022108;28;20497;-94
2023/10/29 00:11:26;;;;;;;6.95;1.48;;;;;;;14.79;100.00;98529.44;5022614;28;20050;-93
2023/10/29 00:13:52;;;;;;;4.22;0.80;;;;;;;14.66;100.00;98499.72;5022242;28;20056;-95
2023/10/29 00:16:18;;;;;;;4.15;1.13;;;;;;;15.23;100.00;98587.13;5022216;28;20081;-95
2023/10/29 00:18:44;;;;;;;5.18;1.33;;;;;;;14.83;100.00;98508.72;5039343;28;20030;-95
2023/10/29 00:21:12;;;;;;;5.90;0.98;;;;;;;15.02;100.00;98533.66;5022238;28;20041;-94
2023/10/29 00:23:37;;;;;;;7.85;2.05;;;;;;;15.08;100.00;98548.56;5038491;28;20117;-95
2023/10/29 00:26:04;;;;;;;10.10;1.17;;;;;;;14.96;100.00;98521.47;5021578;28;20076;-94
2023/10/29 00:28:29;;;;;;;5.80;1.30;;;;;;;15.34;100.00;98595.50;5021563;28;20512;-94
2023/10/29 00:30:55;;;;;;;3.80;1.10;;;;;;;14.88;100.00;98517.44;5022488;28;20050;-93
2023/10/29 00:33:21;;;;;;;10.50;1.27;;;;;;;15.19;100.00;98578.38;5039292;28;20057;-94
2023/10/29 00:35:47;;;;;;;6.90;1.70;;;;;;;14.65;100.00;98497.13;5023348;28;20061;-95
2023/10/29 00:38:15;;;;;;;5.97;1.13;;;;;;;14.79;100.00;98548.19;5039476;28;20071;-94
2023/10/29 00:40:42;;;;;;;4.38;1.08;;;;;;;14.82;100.00;98542.66;5023290;28;20060;-94
2023/10/29 00:43:13;;;;;;;6.05;1.30;;;;;;;14.60;100.00;98504.50;5039677;28;20050;-95
2023/10/29 00:45:40;;;;;;;5.90;1.20;;;;;;;14.50;100.00;98504.88;5022867;28;20050;-95
2023/10/29 00:48:08;;;;;;;5.78;1.02;;;;;;;14.68;100.00;98545.13;5022751;28;20042;-94
2023/10/29 00:50:34;;;;;;;4.63;1.83;;;;;;;14.71;100.00;98553.88;5022360;28;20407;-93
2023/10/29 00:52:59;;;;;;;5.93;1.02;;;;;;;14.89;100.00;98576.22;5037393;28;20118;-93
2023/10/29 00:55:27;;;;;;;8.80;1.40;;;;;;;14.53;100.00;98510.09;5037613;28;20041;-94
2023/10/29 00:57:53;;;;;;;6.03;1.40;;;;;;;14.53;100.00;98503.88;5020393;28;20045;-95
2023/10/29 01:00:21;;;;;;;6.22;1.50;;;;;;;14.97;100.00;98595.47;5019664;28;20443;-93
2023/10/29 01:02:47;;;;;;;7.22;1.55;;;;;;;14.56;100.00;98506.44;5036436;28;20026;-94
2023/10/29 01:05:13;;;;;;;5.00;1.00;;;;;;;14.69;100.00;98537.03;5004805;28;20107;-96
2023/10/29 01:07:39;;;;;;;4.85;1.70;;;;;;;14.47;100.00;98504.19;5017090;28;20046;-90
2023/10/29 01:10:06;;;;;;;3.30;1.30;;;;;;;14.83;100.00;98572.97;5037973;28;20053;-94
2023/10/29 01:12:34;;;;;;;5.28;1.48;;;;;;;14.54;100.00;98532.38;5038284;28;20050;-93
2023/10/29 01:14:59;;;;;;;5.82;1.60;;;;;;;14.23;100.00;98492.81;5021071;28;20595;-94
2023/10/29 01:17:25;;;;;;;2.40;1.30;;;;;;;14.24;100.00;98522.16;5022663;28;20061;-94
2023/10/29 01:19:51;;;;;;;3.80;1.45;;;;;;;14.19;100.00;98505.47;5038926;28;20050;-94
2023/10/29 01:22:18;;;;;;;6.18;1.08;;;;;;;14.49;100.00;98556.69;5038443;28;20558;-94
2023/10/29 01:24:43;;;;;;;7.50;0.90;;;;;;;14.09;100.00;98491.63;5021467;28;20100;-92
2023/10/29 01:27:10;;;;;;;5.72;1.20;;;;;;;14.23;100.00;98527.59;5021999;28;20439;-94
2023/10/29 01:29:37;;;;;;;5.88;1.10;;;;;;;14.11;100.00;98497.78;5021846;28;20042;-95
2023/10/29 01:32:04;;;;;;;6.72;1.90;;;;;;;13.88;100.00;98503.28;5022047;28;20056;-95
2023/10/29 01:34:29;;;;;;;6.30;1.38;;;;;;;13.94;100.00;98519.94;5038074;28;20077;-94
2023/10/29 01:36:55;;;;;;;3.63;1.10;;;;;;;14.10;100.00;98546.84;5021305;28;20038;-94
2023/10/29 01:39:21;;;;;;;4.05;1.20;;;;;;;14.03;100.00;98531.16;5037910;28;20046;-95
2023/10/29 01:41:47;;;;;;;7.90;1.33;;;;;;;14.00;100.00;98540.19;5037851;28;20053;-92
2023/10/29 01:44:14;;;;;;;7.75;1.38;;;;;;;13.90;100.00;98534.38;5020686;28;20046;-94
2023/10/29 01:46:41;;;;;;;8.00;1.60;;;;;;;13.71;100.00;98494.25;5020977;28;20148;-92
2023/10/29 01:49:09;;;;;;;4.13;1.23;;;;;;;13.74;100.00;98493.22;5038543;28;20046;-93
2023/10/29 01:51:36;;;;;;;6.72;1.42;;;;;;;14.00;100.00;98545.53;5038656;28;20041;-95
2023/10/29 01:54:02;;;;;;;7.82;2.03;;;;;;;13.90;100.00;98521.03;5022898;28;20050;-94
2023/10/29 01:56:28;;;;;;;7.70;1.33;;;;;;;13.63;100.00;98491.03;5039118;28;20080;-94
2023/10/29 01:58:54;;;;;;;5.60;1.52;;;;;;;13.93;100.00;98531.56;5022205;28;20053;-95
2023/10/29 02:01:20;;;;;;;4.35;0.90;;;;;;;14.12;100.00;98561.03;5020704;28;20395;-92
2023/10/29 02:03:47;;;;;;;3.50;1.40;;;;;;;13.82;100.00;98482.22;5039562;28;20041;-93
2023/10/29 02:06:16;;;;;;;5.47;1.38;;;;;;;13.98;100.00;98518.00;5038709;28;20056;-93
2023/10/29 02:08:42;;;;;;;5.88;1.40;;;;;;;14.11;100.00;98529.00;5038112;28;20420;-95
2023/10/29 02:11:08;;;;;;;4.95;1.50;;;;;;;13.62;100.00;98483.97;5020487;28;20045;-95
2023/10/29 02:13:34;;;;;;;5.28;1.65;;;;;;;13.72;100.00;98484.41;5021467;28;20045;-94
2023/10/29 02:16:00;;;;;;;7.38;1.30;;;;;;;13.86;100.00;98511.41;5021478;28;20042;-94
2023/10/29 02:18:26;;;;;;;8.20;1.80;;;;;;;14.02;100.00;98524.06;5021314;28;20074;-92
2023/10/29 02:20:53;;;;;;;5.47;1.13;;;;;;;14.17;100.00;98529.59;5020396;28;20128;-94
2023/10/29 02:23:21;;;;;;;10.10;1.73;;;;;;;13.90;100.00;98483.59;5020176;28;20100;-95
2023/10/29 02:25:47;;;;;;;11.20;1.83;;;;;;;14.13;100.00;98481.66;5022036;28;20046;-96
2023/10/29 02:28:13;;;;;;;10.93;1.38;;;;;;;14.09;100.00;98488.94;5022514;28;20050;-94
2023/10/29 02:30:39;;;;;;;5.57;1.98;;;;;;;13.92;100.00;98475.50;5021768;28;20149;-95
2023/10/29 02:33:05;;;;;;;11.90;1.48;;;;;;;14.33;100.00;98534.22;5021471;28;20511;-94
2023/10/29 02:35:31;;;;;;;3.70;1.55;;;;;;;14.41;100.00;98563.31;5022039;28;20061;-93
2023/10/29 02:37:57;;;;;;;7.28;1.10;;;;;;;13.96;100.00;98515.38;5038300;28;20045;-95
2023/10/29 02:40:24;;;;;;;2.58;1.20;;;;;;;14.04;100.00;98507.03;5036962;28;20046;-92
2023/10/29 02:42:50;;;;;;;4.10;1.30;;;;;;;14.40;100.00;98546.41;5021784;28;20088;-94
2023/10/29 02:45:16;;;;;;;4.60;1.25;;;;;;;13.98;100.00;98480.56;5037674;28;20053;-95
2023/10/29 02:47:42;;;;;;;9.77;1.45;;;;;;;13.98;100.00;98524.19;5022670;28;20038;-94
2023/10/29 02:50:09;;;;;;;5.63;1.15;;;;;;;13.88;100.00;98490.81;5020638;28;20484;-94
2023/10/29 02:52:35;;;;;;;4.30;1.33;;;;;;;14.17;100.00;98521.56;5036464;28;20065;-93
2023/10/29 02:55:01;;;;;;;6.93;1.58;;;;;;;13.96;100.00;98487.78;5019684;28;20046;-92
2023/10/29 02:57:29;;;;;;;4.60;1.27;;;;;;;14.00;100.00;98488.53;5019523;28;20472;-93
2023/10/29 02:59:55;;;;;;;4.80;1.13;;;;;;;14.39;100.00;98550.88;5019633;28;20069;-94
2023/10/29 03:02:22;;;;;;;4.28;1.33;;;;;;;14.27;100.00;98510.44;5023464;28;20080;-94
2023/10/29 03:04:48;;;;;;;13.07;1.55;;;;;;;14.17;100.00;98502.00;5040143;28;20055;-94
2023/10/29 03:07:14;;;;;;;8.02;1.15;;;;;;;14.10;100.00;98495.19;5040924;28;20042;-95
2023/10/29 03:09:40;;;;;;;9.27;1.75;;;;;;;14.10;100.00;98497.88;5039886;28;20056;-93
2023/10/29 03:12:06;;;;;;;6.25;1.67;;;;;;;14.66;100.00;98574.66;5038768;28;20042;-94
2023/10/29 03:14:33;;;;;;;7.07;1.30;;;;;;;14.33;100.00;98536.91;5021457;28;20132;-93
2023/10/29 03:16:59;;;;;;;7.20;1.50;;;;;;;14.31;100.00;98530.75;5022103;28;20042;-95
2023/10/29 03:19:25;;;;;;;4.10;1.30;;;;;;;14.14;100.00;98500.31;5038864;28;20091;-95
2023/10/29 03:21:51;;;;;;;5.70;1.55;;;;;;;14.24;100.00;98521.28;5022457;28;20140;-93
2023/10/29 03:24:17;;;;;;;2.88;1.40;;;;;;;14.28;100.00;98520.22;5038496;28;20064;-95
2023/10/29 03:26:43;;;;;;;6.40;1.90;;;;;;;14.23;100.00;98508.88;5039122;28;20053;-93
2023/10/29 03:29:09;;;;;;;6.25;1.08;;;;;;;14.43;100.00;98530.19;5038606;28;20041;-94
2023/10/29 03:31:38;;;;;;;8.10;1.38;;;;;;;14.41;100.00;98516.03;5022446;28;20140;-94
2023/10/29 03:34:05;;;;;;;5.20;1.30;;;;;;;14.67;100.00;98548.75;5039242;28;20049;-93
2023/10/29 03:36:31;;;;;;;3.40;0.80;;;;;;;14.48;100.00;98509.44;5038521;28;20049;-94
2023/10/29 03:38:57;;;;;;;4.53;1.00;;;;;;;14.76;100.00;98541.13;5039865;28;20045;-94
2023/10/29 03:41:23;;;;;;;4.95;1.33;;;;;;;14.95;100.00;98567.91;5023446;28;20121;-93
2023/10/29 03:43:49;;;;;;;5.53;1.20;;;;;;;14.74;100.00;98521.59;5039874;28;20041;-94
2023/10/29 03:46:16;;;;;;;3.13;1.30;;;;;;;14.67;100.00;98511.28;5023527;28;20096;-95
2023/10/29 03:48:45;;;;;;;5.72;1.70;;;;;;;14.71;100.00;98519.09;5041427;28;20042;-94
2023/10/29 03:51:11;;;;;;;4.72;1.38;;;;;;;15.12;100.00;98579.63;5039374;28;20056;-95
2023/10/29 03:53:37;;;;;;;6.03;1.30;;;;;;;14.68;100.00;98507.66;5022568;28;20041;-93
2023/10/29 03:56:04;;;;;;;6.05;1.35;;;;;;;14.54;100.00;98509.16;5038130;28;20064;-93
2023/10/29 03:58:29;;;;;;;4.32;1.30;;;;;;;14.96;100.00;98572.34;5038157;28;20042;-94
2023/10/29 04:00:56;;;;;;;5.13;1.30;;;;;;;15.04;100.00;98577.31;5035555;28;20061;-94
2023/10/29 04:03:22;;;;;;;5.10;1.15;;;;;;;15.06;100.00;98567.38;5019263;28;20053;-94
2023/10/29 04:05:49;;;;;;;4.10;1.10;;;;;;;14.68;100.00;98515.69;5019145;28;20045;-95
2023/10/29 04:08:16;;;;;;;5.28;0.98;;;;;;;14.61;100.00;98512.44;5035586;28;20046;-93
2023/10/29 04:10:42;;;;;;;6.10;1.40;;;;;;;14.79;100.00;98543.69;5036031;28;20064;-94
2023/10/29 04:13:08;;;;;;;7.03;1.40;;;;;;;15.00;100.00;98579.25;5035199;28;20058;-93
2023/10/29 04:15:34;;;;;;;3.75;1.42;;;;;;;14.62;100.00;98511.50;5018045;28;20054;-94
2023/10/29 04:18:00;;;;;;;4.38;1.30;;;;;;;14.93;100.00;98561.75;5035277;28;20048;-94
2023/10/29 04:20:27;;;;;;;5.90;1.92;;;;;;;14.74;100.00;98537.66;5018334;28;20406;-94
2023/10/29 04:22:54;;;;;;;3.85;1.20;;;;;;;14.85;100.00;98555.91;5018465;28;20407;-94
2023/10/29 04:25:20;;;;;;;5.50;1.27;;;;;;;14.64;100.00;98527.47;5018707;28;20048;-92
2023/10/29 04:27:46;;;;;;;5.70;1.40;;;;;;;14.47;100.00;98497.00;5035607;28;20042;-94
2023/10/29 04:30:13;;;;;;;3.80;1.20;;;;;;;14.31;100.00;98479.94;5018762;28;20117;-94
2023/10/29 04:32:39;;;;;;;8.77;1.30;;;;;;;14.50;100.00;98526.28;5019886;28;20026;-93
2023/10/29 04:35:06;;;;;;;6.40;1.58;;;;;;;14.37;100.00;98520.63;5021589;28;20068;-95
2023/10/29 04:37:32;;;;;;;2.67;1.38;;;;;;;14.39;100.00;98507.19;5021950;28;20042;-94
2023/10/29 04:39:59;;;;;;;5.85;1.35;;;;;;;14.75;100.00;98574.22;5021948;28;20108;-94
2023/10/29 04:42:25;;;;;;;7.80;1.80;;;;;;;14.17;100.00;98492.16;5022935;28;20042;-95
2023/10/29 04:44:51;;;;;;;8.45;2.00;;;;;;;14.31;100.00;98518.28;5021684;28;20041;-96
2023/10/29 04:47:17;;;;;;;7.05;2.03;;;;;;;14.12;100.00;98485.28;5021884;28;20053;-95
2023/10/29 04:49:43;;;;;;;8.27;2.40;;;;;;;14.42;100.00;98555.22;5021481;28;20042;-95
2023/10/29 04:52:09;;;;;;;9.13;3.03;;;;;;;13.91;100.00;98473.78;5037548;28;20487;-93
2023/10/29 04:54:36;;;;;;;6.43;2.65;;;;;;;14.36;100.00;98566.22;5021571;28;20045;-94
2023/10/29 04:57:04;;;;;;;7.18;2.60;;;;;;;14.32;100.00;98548.56;5038367;28;20538;-94
2023/10/29 04:59:30;;;;;;;12.07;3.63;;;;;;;14.13;100.00;98479.00;5021301;28;20097;-94
2023/10/29 05:01:55;;;;;;;11.85;3.90;;;;;;;14.26;100.00;98538.13;5020739;28;20054;-94
2023/10/29 05:04:21;;;;;;;12.20;4.60;;;;;;;14.49;100.00;98562.03;5021505;28;20141;-94
2023/10/29 05:06:48;;;;;;;15.40;5.05;;;;;;;14.28;100.00;98512.19;5020233;28;20427;-94
2023/10/29 05:09:14;;;;;;;14.13;5.00;;;;;;;14.35;100.00;98513.63;5037643;28;20053;-94
2023/10/29 05:11:39;;;;;;;12.48;4.40;;;;;;;14.16;100.00;98482.41;5038313;28;20405;-94
2023/10/29 05:14:07;;;;;;;12.65;3.72;;;;;;;14.47;100.00;98521.09;5038175;28;20077;-93
2023/10/29 05:16:33;;;;;;;8.30;3.13;;;;;;;14.25;100.00;98477.53;5038846;28;20082;-93
2023/10/29 05:18:59;;;;;;;9.88;2.50;;;;;;;14.29;100.00;98473.78;5021229;28;20042;-94
2023/10/29 05:21:25;;;;;;;10.68;2.72;;;;;;;14.68;100.00;98539.78;5020770;28;20049;-94
2023/10/29 05:23:52;;;;;;;6.05;2.25;;;;;;;14.38;100.00;98478.72;5020584;28;20051;-93
2023/10/29 05:26:18;;;;;;;7.97;2.22;;;;;;;14.29;100.00;98476.47;5020839;28;20412;-95
2023/10/29 05:28:44;;;;;;;15.63;2.47;;;;;;;14.40;100.00;98495.59;5037308;28;20052;-94
2023/10/29 05:31:12;;;;;;;9.77;2.47;;;;;;;14.38;100.00;98503.66;5022356;28;20066;-95
2023/10/29 05:33:41;;;;;;;10.07;1.85;;;;;;;14.51;100.00;98524.50;5022949;28;20046;-95
2023/10/29 05:36:07;;;;;;;10.30;2.20;;;;;;;14.35;100.00;98500.25;5021749;28;20411;-95
2023/10/29 05:38:35;;;;;;;6.43;2.40;;;;;;;14.31;100.00;98495.97;5037872;28;20038;-94
2023/10/29 05:41:01;;;;;;;11.55;3.00;;;;;;;14.42;100.00;98506.19;5040146;28;20054;-95
2023/10/29 05:43:27;;;;;;;8.82;2.40;;;;;;;14.71;100.00;98558.38;5038060;28;20056;-94
2023/10/29 05:45:54;;;;;;;10.15;1.88;;;;;;;14.75;100.00;98568.00;5023910;28;20050;-94
2023/10/29 05:48:22;;;;;;;12.30;3.35;;;;;;;14.34;100.00;98501.22;5024039;28;20049;-94
2023/10/29 05:50:48;;;;;;;7.43;2.42;;;;;;;14.38;100.00;98497.47;5022731;28;20073;-95
2023/10/29 05:53:14;;;;;;;10.73;2.50;;;;;;;14.44;100.00;98507.84;5038404;28;20049;-93
2023/10/29 05:55:40;;;;;;;11.48;2.55;;;;;;;14.50;100.00;98517.41;5020749;28;20112;-94
2023/10/29 05:58:06;;;;;;;9.02;3.00;;;;;;;14.57;100.00;98533.16;5037294;28;20042;-93
2023/10/29 06:00:32;;;;;;;9.82;2.90;;;;;;;14.45;100.00;98512.28;5039910;28;20061;-92
2023/10/29 06:02:58;;;;;;;13.95;3.05;;;;;;;14.74;100.00;98550.19;5022792;28;20041;-93
2023/10/29 06:05:26;;;;;;;8.45;3.78;;;;;;;14.81;100.00;98562.34;5022859;28;20056;-93
2023/10/29 06:07:53;;;;;;;8.48;2.90;;;;;;;14.87;100.00;98554.00;5022700;28;20037;-95
2023/10/29 06:10:18;;;;;;;8.88;3.30;;;;;;;14.47;100.00;98499.69;5039150;28;20041;-94
2023/10/29 06:12:44;;;;;;;7.97;2.67;;;;;;;14.54;100.00;98505.63;5023230;28;20048;-93
2023/10/29 06:15:11;;;;;;;7.03;2.75;;;;;;;14.54;100.00;98505.63;5039403;28;20064;-95
2023/10/29 06:17:37;;;;;;;5.97;2.75;;;;;;;14.51;100.00;98503.97;5023390;28;20052;-94
2023/10/29 06:20:04;;;;;;;8.13;3.10;;;;;;;14.56;100.00;98514.47;5039711;28;20046;-94
2023/10/29 06:22:32;;;;;;;5.22;2.42;;;;;;;14.77;100.00;98556.28;5038926;28;20056;-95
2023/10/29 06:24:58;;;;;;;10.63;3.13;;;;;;;14.84;100.00;98562.22;5023308;28;20056;-92
2023/10/29 06:27:24;;;;;;;6.63;2.45;;;;;;;15.12;100.00;98603.72;5022281;28;20530;-93
2023/10/29 06:29:50;;;;;;;11.65;3.03;;;;;;;15.27;100.00;98610.16;5021587;28;20044;-94
2023/10/29 06:32:16;;;;;;;6.50;2.45;;;;;;;15.06;100.00;98555.81;5038945;28;20045;-94
2023/10/29 06:34:42;;;;;;;9.40;2.72;;;;;;;15.49;100.00;98620.69;5022978;28;20076;-94
2023/10/29 06:37:09;;;;;;;6.53;2.50;;;;;;;15.44;100.00;98598.59;5024273;28;20045;-94
2023/10/29 06:39:37;;;;;;;7.90;2.45;;;;;;;15.39;100.00;98558.63;5026670;28;20061;-94
2023/10/29 06:42:04;;;;;;;15.93;2.53;;;;;;;15.91;100.00;98624.84;5041126;28;20068;-94
2023/10/29 06:44:30;;;;;;;9.55;2.17;;;;;;;16.18;100.00;98638.69;5037745;28;20456;-94
2023/10/29 06:46:56;;;;;;;13.13;2.45;;;;;;;16.25;100.00;98621.31;5038494;28;20057;-94
2023/10/29 06:49:22;;;;;;;8.00;2.30;;;;;;;15.98;100.00;98562.78;5022183;28;20511;-95
2023/10/29 06:51:48;;;;;;;8.25;2.05;;;;;;;16.16;100.00;98576.19;5022796;28;20041;-93
2023/10/29 06:54:14;;;;;;;7.25;2.08;;;;;;;16.58;100.00;98639.25;5039972;28;20046;-94
2023/10/29 06:56:41;;;;;;;5.50;2.05;;;;;;;16.37;100.00;98588.47;5040328;28;20052;-93
2023/10/29 06:59:07;;;;;;;10.23;1.75;;;;;;;16.47;100.00;98579.91;5023374;28;20487;-94
2023/10/29 07:01:33;;;;;;;5.15;1.83;;;;;;;17.09;100.00;98656.19;5021355;28;20084;-94
2023/10/29 07:03:59;;;;;;;5.82;1.60;;;;;;;16.81;100.00;98601.31;5037528;28;20049;-95
2023/10/29 07:06:25;;;;;;;5.97;2.20;;;;;;;16.91;100.00;98601.66;5037871;28;20051;-95
2023/10/29 07:08:54;;;;;;;8.13;1.75;;;;;;;17.06;100.00;98580.25;5038197;28;20037;-93
2023/10/29 07:11:30;;;;;;;8.93;1.88;;;;;;;17.47;100.00;98644.22;5021135;28;20045;-95
2023/10/29 07:14:04;;;;;;;6.82;1.42;;;;;;;17.44;100.00;98618.38;5037215;28;20498;-95
2023/10/29 07:16:31;;;;;;;7.75;1.42;;;;;;;17.56;100.00;98592.59;5019565;28;20050;-93
2023/10/29 07:18:57;;;;;;;6.68;1.73;;;;;;;17.80;100.00;98585.81;5020516;28;20045;-95
2023/10/29 07:21:30;;;;;;;7.43;1.40;;;;;;;18.15;100.00;98625.00;5036811;28;20052;-94
2023/10/29 07:23:59;;;;;;;3.70;1.17;;;;;;;18.20;100.00;98620.22;5020029;28;20041;-93
2023/10/29 07:26:24;;;;;;;5.85;1.25;;;;;;;18.17;100.00;98625.78;5019249;28;20483;-95
2023/10/29 07:28:54;;;;;;;4.35;1.30;;;;;;;18.22;100.00;98635.31;5035378;28;20048;-93
2023/10/29 07:31:21;;;;;;;3.92;1.42;;;;;;;18.23;100.00;98607.44;5019672;28;20399;-95
2023/10/29 07:33:53;;;;;;;7.25;1.60;;;;;;;18.43;100.00;98617.00;5036632;28;20041;-94
2023/10/29 07:36:23;;;;;;;3.60;1.55;;;;;;;18.27;100.00;98602.75;5037409;28;20046;-94
2023/10/29 07:38:49;;;;;;;6.43;1.42;;;;;;;18.73;100.00;98660.97;5020649;28;20046;-94
2023/10/29 07:41:18;;;;;;;4.93;1.20;;;;;;;18.84;100.00;98653.97;5022278;28;20061;-96
2023/10/29 07:44:07;;;;;;;6.45;1.33;;;;;;;18.87;100.00;98640.31;5038341;28;20048;-94
2023/10/29 07:46:38;;;;;;;5.25;1.38;;;;;;;18.74;100.00;98631.25;5040781;28;20159;-94
2023/10/29 07:49:04;;;;;;;3.20;1.13;;;;;;;18.85;100.00;98639.53;5026272;28;20049;-96
2023/10/29 07:51:30;;;;;;;5.18;1.30;;;;;;;19.03;100.00;98653.69;5039631;28;20494;-95
2023/10/29 07:53:56;;;;;;;9.90;1.13;;;;;;;18.97;100.00;98632.50;5022076;28;20076;-95
2023/10/29 07:56:22;;;;;;;4.53;1.27;;;;;;;19.30;100.00;98650.19;5039443;28;20402;-94
2023/10/29 07:58:48;;;;;;;6.00;1.15;;;;;;;19.70;100.00;98679.97;5021431;28;20042;-94
2023/10/29 08:01:15;;;;;;;6.43;1.52;;;;;;;19.62;100.00;98663.38;5038009;28;20509;-92
2023/10/29 08:03:44;;;;;;;4.50;1.40;;;;;;;19.72;100.00;98640.28;5019959;28;20149;-94
2023/10/29 08:06:11;;;;;;;5.95;1.40;;;;;;;19.38;100.00;98631.66;5022918;28;20050;-95
2023/10/29 08:08:37;;;;;;;3.45;1.13;;;;;;;19.68;100.00;98698.91;5023645;28;20091;-96
2023/10/29 08:11:03;;;;;;;6.32;1.00;;;;;;;19.57;100.00;98670.94;5026749;28;20045;-95
2023/10/29 08:13:29;;;;;;;5.28;1.33;;;;;;;19.66;100.00;98667.63;5042315;28;20053;-95
2023/10/29 08:15:55;;;;;;;6.40;1.20;;;;;;;20.04;100.00;98681.31;5024200;28;20049;-94
2023/10/29 08:18:22;;;;;;;6.03;1.15;;;;;;;19.65;100.00;98633.53;5022879;28;20048;-95
2023/10/29 08:20:49;;;;;;;5.70;1.40;;;;;;;19.34;100.00;98619.34;5025804;28;20041;-95
2023/10/29 08:23:20;;;;;;;3.85;1.30;;;;;;;19.54;100.00;98636.06;5027124;28;20077;-96
2023/10/29 08:25:46;;;;;;;4.55;1.00;;;;;;;19.48;100.00;98632.81;5024097;28;20053;-95
2023/10/29 08:28:12;;;;;;;3.70;1.35;;;;;;;19.59;100.00;98653.69;5022892;28;20052;-95
2023/10/29 08:30:37;;;;;;;3.45;1.20;;;;;;;20.05;100.00;98704.59;5022983;28;20562;-94
2023/10/29 08:33:03;;;;;;;2.25;1.00;;;;;;;20.02;100.00;98707.53;5024982;28;20041;-95
2023/10/29 08:35:29;;;;;;;3.70;1.00;;;;;;;20.04;100.00;98664.25;5022490;28;20133;-94
2023/10/29 08:37:57;;;;;;;5.90;1.90;;;;;;;20.07;100.00;98716.16;5023338;28;20037;-94
2023/10/29 08:40:23;;;;;;;8.85;1.30;;;;;;;20.21;100.00;98706.28;5002397;28;20045;-95
2023/10/29 08:42:49;;;;;;;6.07;1.27;;;;;;;20.35;100.00;98676.50;5002684;28;20037;-94
2023/10/29 08:45:15;;;;;;;4.35;1.17;;;;;;;20.75;100.00;98708.88;5016765;28;20065;-95
2023/10/29 08:47:41;;;;;;;3.08;1.33;;;;;;;20.98;100.00;98715.38;5022096;28;20037;-93
2023/10/29 08:50:08;;;;;;;5.55;1.13;;;;;;;20.96;100.00;98720.03;5021217;28;20068;-95
2023/10/29 08:52:34;;;;;;;6.30;2.30;;;;;;;20.60;100.00;98707.25;5017776;28;20145;-94
2023/10/29 08:55:01;;;;;;;2.95;1.05;;;;;;;20.23;100.00;98686.31;5001564;28;20042;-94
2023/10/29 08:57:27;;;;;;;5.60;1.30;;;;;;;20.12;100.00;98664.56;5021255;28;20053;-95
2023/10/29 08:59:53;;;;;;;2.45;0.90;;;;;;;20.30;100.00;98717.34;5021143;28;20449;-96
2023/10/29 09:02:19;;;;;;;2.83;1.15;;;;;;;20.42;100.00;98694.00;5019504;28;20041;-94
2023/10/29 09:04:46;;;;;;;4.47;0.98;;;;;;;20.39;100.00;98693.38;5011727;28;20554;-95
2023/10/29 09:07:15;;;;;;;1.80;0.80;;;;;;;20.29;100.00;98677.78;5021939;28;20049;-96
2023/10/29 09:09:41;;;;;;;4.78;1.13;;;;;;;20.11;100.00;98697.94;5023105;28;20044;-96
2023/10/29 09:12:10;;;;;;;5.53;0.93;;;;;;;20.05;100.00;98679.47;5024281;28;20041;-95
2023/10/29 09:14:35;;;;;;;5.20;1.02;;;;;;;20.45;100.00;98698.34;5022651;28;20041;-94
2023/10/29 09:17:03;;;;;;;5.10;1.35;;;;;;;20.32;100.00;98695.63;5022508;28;20045;-95
2023/10/29 09:19:29;;;;;;;5.88;1.20;;;;;;;20.69;100.00;98691.28;5028730;28;20068;-95
2023/10/29 09:21:55;;;;;;;11.00;1.10;;;;;;;20.76;100.00;98699.81;5020861;28;20046;-95
2023/10/29 09:24:21;;;;;;;3.00;0.68;;;;;;;20.76;100.00;98720.59;5020123;28;20101;-93
2023/10/29 09:26:47;;;;;;;0.98;0.65;;;;;;;20.43;100.00;98647.16;5020311;28;20391;-95
2023/10/29 09:29:16;;;;;;;2.42;0.73;;;;;;;20.73;100.00;98643.28;5020819;28;20109;-93
2023/10/29 09:31:42;;;;;;;6.05;0.90;;;;;;;21.17;100.00;98717.66;5022291;28;20044;-92
2023/10/29 09:34:08;;;;;;;3.08;0.63;;;;;;;20.49;100.00;98667.44;5038133;28;20038;-94
2023/10/29 09:36:34;;;;;;;3.72;0.80;;;;;;;20.78;100.00;98688.91;5040876;28;20065;-93
2023/10/29 09:39:00;;;;;;;2.92;0.68;;;;;;;20.84;100.00;98693.88;5025029;28;20360;-93
2023/10/29 09:41:26;;;;;;;4.25;0.90;;;;;;;21.04;100.00;98711.41;5023819;28;20479;-94
2023/10/29 09:43:53;;;;;;;1.35;0.65;;;;;;;20.76;100.00;98653.03;5028850;28;20048;-96
2023/10/29 09:46:22;;;;;;;1.70;0.65;;;;;;;21.10;100.00;98722.66;5023521;28;20399;-95
2023/10/29 09:48:50;;;;;;;4.50;1.17;;;;;;;21.00;100.00;98682.84;5023662;28;20372;-94
2023/10/29 09:51:19;;;;;;;4.90;0.80;;;;;;;21.37;100.00;98704.53;5013320;28;20092;-95
2023/10/29 09:53:46;;;;;;;1.13;0.50;;;;;;;20.89;100.00;98646.63;5022113;28;20053;-95
2023/10/29 09:56:12;;;;;;;2.10;0.50;;;;;;;20.89;100.00;98651.19;5022460;28;20052;-94
2023/10/29 09:58:39;;;;;;;0.65;0.60;;;;;;;20.81;100.00;98643.59;5047982;28;20042;-94
2023/10/29 10:01:05;;;;;;;2.70;1.13;;;;;;;21.09;100.00;98701.97;5023744;28;20080;-93
2023/10/29 10:03:33;;;;;;;3.38;0.65;;;;;;;21.47;100.00;98674.03;5019411;28;20080;-94
2023/10/29 10:05:59;;;;;;;4.70;0.80;;;;;;;21.38;100.00;98660.28;5019803;28;20105;-93
2023/10/29 10:08:25;;;;;;;2.92;0.75;;;;;;;21.41;100.00;98660.97;5019318;28;20069;-94
2023/10/29 10:10:52;;;;;;;5.35;0.60;;;;;;;21.56;100.00;98686.03;5019460;28;20041;-93
2023/10/29 10:13:18;;;;;;;4.70;0.60;;;;;;;21.61;100.00;98707.34;5043161;28;20043;-93
2023/10/29 10:15:44;;;;;;;7.13;0.80;;;;;;;21.57;100.00;98673.34;5033298;28;20496;-96
2023/10/29 10:18:11;;;;;;;3.95;0.57;;;;;;;21.42;100.00;98667.22;5016668;28;20044;-96
2023/10/29 10:20:39;;;;;;;3.85;0.50;;;;;;;21.80;100.00;98688.75;5015104;28;20103;-94
2023/10/29 10:23:11;;;;;;;4.10;0.75;;;;;;;21.34;100.00;98671.31;5017976;28;20101;-94
2023/10/29 10:25:37;;;;;;;5.00;0.50;;;;;;;21.39;100.00;98638.53;5029557;28;20046;-95
2023/10/29 10:28:04;;;;;;;4.75;0.70;;;;;;;21.72;100.00;98694.72;5023823;28;20049;-96
2023/10/29 10:30:33;;;;;;;2.38;0.75;;;;;;;21.69;100.00;98670.59;5021378;28;20065;-94
2023/10/29 10:33:10;;;;;;;2.28;0.50;;;;;;;21.89;100.00;98665.53;5019931;28;20107;-93
2023/10/29 10:35:43;;;;;;;0.75;0.65;;;;;;;21.59;100.00;98644.34;5023633;28;20037;-95
2023/10/29 10:38:10;;;;;;;3.97;1.17;;;;;;;21.54;100.00;98650.94;5022461;28;20099;-95
2023/10/29 10:40:36;;;;;;;2.85;0.80;;;;;;;21.78;100.00;98696.13;5048111;28;20041;-94
2023/10/29 10:43:02;;;;;;;2.10;0.60;;;;;;;21.61;100.00;98707.34;5020922;28;20051;-93
2023/10/29 10:45:30;;;;;;;4.20;0.70;;;;;;;21.40;100.00;98683.53;5018960;28;20037;-92
2023/10/29 10:47:58;;;;;;;3.53;0.82;;;;;;;21.50;100.00;98678.34;5017358;28;20034;-93
2023/10/29 10:50:25;;;;;;;7.25;1.23;;;;;;;21.30;100.00;98667.13;5018983;28;20041;-92
2023/10/29 10:52:52;;;;;;;0.55;0.40;;;;;;;21.19;100.00;98653.53;5040766;28;20050;-94
2023/10/29 10:55:20;;;;;;;4.00;1.05;;;;;;;21.21;100.00;98672.31;5018932;28;20049;-93
2023/10/29 10:57:49;;;;;;;4.05;0.60;;;;;;;21.59;100.00;98690.34;5018959;28;20047;-93
2023/10/29 11:00:16;;;;;;;5.22;1.08;;;;;;;21.98;100.00;98708.16;5016452;28;20029;-94
2023/10/29 11:02:43;;;;;;;4.65;0.80;;;;;;;21.57;100.00;98640.88;5012132;28;20033;-94
2023/10/29 11:05:10;;;;;;;4.68;0.80;;;;;;;21.71;100.00;98697.56;5011713;28;20049;-94
2023/10/29 11:07:41;;;;;;;3.67;0.80;;;;;;;21.49;100.00;98685.63;5013819;28;20046;-93
2023/10/29 11:10:18;;;;;;;4.50;0.68;;;;;;;21.65;100.00;98692.59;5036278;28;20042;-93
2023/10/29 11:12:46;;;;;;;2.53;0.85;;;;;;;21.58;100.00;98658.84;5016246;28;20143;-95
2023/10/29 11:15:17;;;;;;;3.88;0.55;;;;;;;21.50;100.00;98654.84;5018451;28;20515;-94
2023/10/29 11:17:57;;;;;;;3.17;0.82;;;;;;;21.67;100.00;98660.88;5036661;28;20099;-94
2023/10/29 11:20:51;;;;;;;1.90;0.77;;;;;;;22.09;100.00;98689.25;5019437;28;20068;-91
2023/10/29 11:23:26;;;;;;;5.20;0.70;;;;;;;22.07;100.00;98698.47;5034754;28;20045;-93